sim
Sign-in with your pilot id or email,
or register
Callsign
Passwort

Schedule Details

Flight Number: OEO2077
Departure: Ivalo Airport (EFIV) at 09:35
Arrival: Munich Airport (EDDM) at 13:25

Weather Information
Getting current METAR information for EFIV 291720Z AUTO 19004KT 160V220 9999 OVC012 11/10 Q1018
Getting current METAR information for EDDM 291720Z 26006KT 9999 SCT017 BKN030 11/09 Q1019 NOSIG

Schedule Frequency

Route Map